sensor_id;sensor_type;location;lat;lon;timestamp;temperature;humidity
33460;DHT22;19795;53.160;6.612;2023-03-19T06:39:13;8.40;99.90
33460;DHT22;19795;53.160;6.612;2023-03-19T06:41:39;8.40;99.90
33460;DHT22;19795;53.160;6.612;2023-03-19T06:46:40;8.40;99.90
33460;DHT22;19795;53.160;6.612;2023-03-19T06:49:06;8.30;99.90
33460;DHT22;19795;53.160;6.612;2023-03-19T06:51:31;8.30;99.90
33460;DHT22;19795;53.160;6.612;2023-03-19T06:53:57;8.30;99.90
33460;DHT22;19795;53.160;6.612;2023-03-19T06:56:23;8.30;99.90
33460;DHT22;19795;53.160;6.612;2023-03-19T06:58:49;8.40;99.90
33460;DHT22;19795;53.160;6.612;2023-03-19T07:01:15;8.50;99.90
33460;DHT22;19795;53.160;6.612;2023-03-19T07:03:41;8.60;99.90
33460;DHT22;19795;53.160;6.612;2023-03-19T07:06:07;8.70;99.90
33460;DHT22;19795;53.160;6.612;2023-03-19T07:08:32;8.80;99.90
33460;DHT22;19795;53.160;6.612;2023-03-19T07:11:05;8.90;99.90
33460;DHT22;19795;53.160;6.612;2023-03-19T07:13:32;9.10;99.90
33460;DHT22;19795;53.160;6.612;2023-03-19T07:15:58;9.20;99.90
33460;DHT22;19795;53.160;6.612;2023-03-19T07:18:24;9.20;99.90
33460;DHT22;19795;53.160;6.612;2023-03-19T07:20:50;9.30;99.90
33460;DHT22;19795;53.160;6.612;2023-03-19T07:23:17;9.40;99.90
33460;DHT22;19795;53.160;6.612;2023-03-19T07:25:43;9.50;99.90
33460;DHT22;19795;53.160;6.612;2023-03-19T07:28:08;9.50;99.90
33460;DHT22;19795;53.160;6.612;2023-03-19T07:30:34;9.50;99.90
33460;DHT22;19795;53.160;6.612;2023-03-19T07:33:00;9.60;99.90
33460;DHT22;19795;53.160;6.612;2023-03-19T07:35:26;9.60;99.90
33460;DHT22;19795;53.160;6.612;2023-03-19T07:37:52;9.60;99.90
33460;DHT22;19795;53.160;6.612;2023-03-19T07:40:17;9.80;99.90
33460;DHT22;19795;53.160;6.612;2023-03-19T07:42:45;9.90;99.90
33460;DHT22;19795;53.160;6.612;2023-03-19T07:45:11;10.00;99.90
33460;DHT22;19795;53.160;6.612;2023-03-19T07:47:36;10.40;99.90
33460;DHT22;19795;53.160;6.612;2023-03-19T07:50:02;10.90;99.90
33460;DHT22;19795;53.160;6.612;2023-03-19T07:52:28;11.20;99.90
33460;DHT22;19795;53.160;6.612;2023-03-19T07:54:54;11.70;99.90
33460;DHT22;19795;53.160;6.612;2023-03-19T07:57:20;11.90;99.90
33460;DHT22;19795;53.160;6.612;2023-03-19T07:59:46;11.90;99.90
33460;DHT22;19795;53.160;6.612;2023-03-19T08:02:12;12.10;99.90
33460;DHT22;19795;53.160;6.612;2023-03-19T08:04:39;12.30;99.90
33460;DHT22;19795;53.160;6.612;2023-03-19T08:07:05;12.40;99.90
33460;DHT22;19795;53.160;6.612;2023-03-19T08:09:31;12.30;99.90
33460;DHT22;19795;53.160;6.612;2023-03-19T08:11:57;12.00;99.90
33460;DHT22;19795;53.160;6.612;2023-03-19T08:14:23;12.10;99.90
33460;DHT22;19795;53.160;6.612;2023-03-19T08:16:48;12.70;99.90
33460;DHT22;19795;53.160;6.612;2023-03-19T08:19:14;13.10;99.90
33460;DHT22;19795;53.160;6.612;2023-03-19T08:21:41;13.10;99.90
33460;DHT22;19795;53.160;6.612;2023-03-19T08:24:07;13.00;99.90
33460;DHT22;19795;53.160;6.612;2023-03-19T08:26:33;12.90;99.90
33460;DHT22;19795;53.160;6.612;2023-03-19T08:28:59;12.70;99.90
33460;DHT22;19795;53.160;6.612;2023-03-19T08:31:25;13.10;99.90
33460;DHT22;19795;53.160;6.612;2023-03-19T08:33:51;13.20;99.90
33460;DHT22;19795;53.160;6.612;2023-03-19T08:36:17;12.80;99.90
33460;DHT22;19795;53.160;6.612;2023-03-19T08:38:43;12.40;99.90
33460;DHT22;19795;53.160;6.612;2023-03-19T08:41:09;12.20;99.90
33460;DHT22;19795;53.160;6.612;2023-03-19T08:43:36;12.00;99.90
33460;DHT22;19795;53.160;6.612;2023-03-19T08:46:03;12.10;99.90
33460;DHT22;19795;53.160;6.612;2023-03-19T08:48:30;11.80;99.90
33460;DHT22;19795;53.160;6.612;2023-03-19T08:51:00;11.80;99.90
33460;DHT22;19795;53.160;6.612;2023-03-19T08:53:27;11.90;99.90
33460;DHT22;19795;53.160;6.612;2023-03-19T08:55:58;12.00;99.90
33460;DHT22;19795;53.160;6.612;2023-03-19T08:58:24;12.20;99.90
33460;DHT22;19795;53.160;6.612;2023-03-19T09:00:51;12.40;99.90
33460;DHT22;19795;53.160;6.612;2023-03-19T09:03:18;12.30;99.90
33460;DHT22;19795;53.160;6.612;2023-03-19T09:05:45;12.20;99.90
33460;DHT22;19795;53.160;6.612;2023-03-19T09:08:11;12.10;99.90
33460;DHT22;19795;53.160;6.612;2023-03-19T09:10:37;12.20;99.90
33460;DHT22;19795;53.160;6.612;2023-03-19T09:13:04;12.20;99.90
33460;DHT22;19795;53.160;6.612;2023-03-19T09:15:30;12.30;99.90
33460;DHT22;19795;53.160;6.612;2023-03-19T09:17:55;12.60;99.90
33460;DHT22;19795;53.160;6.612;2023-03-19T09:20:21;12.90;99.90
33460;DHT22;19795;53.160;6.612;2023-03-19T09:22:47;13.40;99.90
33460;DHT22;19795;53.160;6.612;2023-03-19T09:25:13;14.00;99.90
33460;DHT22;19795;53.160;6.612;2023-03-19T09:27:38;14.10;99.90
33460;DHT22;19795;53.160;6.612;2023-03-19T09:30:05;14.30;99.90
33460;DHT22;19795;53.160;6.612;2023-03-19T09:32:34;14.20;99.90
33460;DHT22;19795;53.160;6.612;2023-03-19T09:34:59;14.00;99.90
33460;DHT22;19795;53.160;6.612;2023-03-19T09:37:25;13.70;99.90
33460;DHT22;19795;53.160;6.612;2023-03-19T09:39:51;13.70;99.90
33460;DHT22;19795;53.160;6.612;2023-03-19T09:42:54;13.70;99.90
33460;DHT22;19795;53.160;6.612;2023-03-19T09:45:23;13.40;99.90
33460;DHT22;19795;53.160;6.612;2023-03-19T09:47:54;13.20;99.90
33460;DHT22;19795;53.160;6.612;2023-03-19T09:50:24;13.10;99.90
33460;DHT22;19795;53.160;6.612;2023-03-19T09:55:50;13.10;99.90
33460;DHT22;19795;53.160;6.612;2023-03-19T09:58:22;13.30;99.90
33460;DHT22;19795;53.160;6.612;2023-03-19T10:00:51;13.30;99.90
33460;DHT22;19795;53.160;6.612;2023-03-19T10:06:29;13.10;99.90
33460;DHT22;19795;53.160;6.612;2023-03-19T10:11:58;13.40;99.90
33460;DHT22;19795;53.160;6.612;2023-03-19T10:17:18;13.60;99.90
33460;DHT22;19795;53.160;6.612;2023-03-19T10:19:52;13.80;99.90
33460;DHT22;19795;53.160;6.612;2023-03-19T10:22:48;13.70;99.90
33460;DHT22;19795;53.160;6.612;2023-03-19T10:25:26;13.40;99.90
33460;DHT22;19795;53.160;6.612;2023-03-19T10:27:59;13.30;99.90
33460;DHT22;19795;53.160;6.612;2023-03-19T10:30:32;13.40;99.90
33460;DHT22;19795;53.160;6.612;2023-03-19T10:35:50;13.80;99.90
33460;DHT22;19795;53.160;6.612;2023-03-19T10:38:22;13.60;99.90
33460;DHT22;19795;53.160;6.612;2023-03-19T10:43:30;13.80;99.90
33460;DHT22;19795;53.160;6.612;2023-03-19T10:45:56;13.90;99.90
33460;DHT22;19795;53.160;6.612;2023-03-19T10:48:24;14.00;99.90
33460;DHT22;19795;53.160;6.612;2023-03-19T10:51:03;13.90;99.90
33460;DHT22;19795;53.160;6.612;2023-03-19T10:56:04;13.90;99.90
33460;DHT22;19795;53.160;6.612;2023-03-19T10:58:32;14.00;99.90
33460;DHT22;19795;53.160;6.612;2023-03-19T11:01:10;13.70;99.90
33460;DHT22;19795;53.160;6.612;2023-03-19T11:03:55;13.60;99.90
33460;DHT22;19795;53.160;6.612;2023-03-19T11:06:32;13.60;99.90
33460;DHT22;19795;53.160;6.612;2023-03-19T11:11:41;13.70;99.90
33460;DHT22;19795;53.160;6.612;2023-03-19T11:14:19;13.90;99.90
33460;DHT22;19795;53.160;6.612;2023-03-19T11:16:57;14.40;99.90
33460;DHT22;19795;53.160;6.612;2023-03-19T11:19:26;14.40;99.90
33460;DHT22;19795;53.160;6.612;2023-03-19T11:21:59;15.10;99.90
33460;DHT22;19795;53.160;6.612;2023-03-19T11:24:25;15.10;99.90
33460;DHT22;19795;53.160;6.612;2023-03-19T11:26:54;15.00;99.90
33460;DHT22;19795;53.160;6.612;2023-03-19T11:29:22;14.80;99.90
33460;DHT22;19795;53.160;6.612;2023-03-19T11:35:10;15.00;99.90
33460;DHT22;19795;53.160;6.612;2023-03-19T11:37:53;14.90;99.90
33460;DHT22;19795;53.160;6.612;2023-03-19T12:00:45;15.00;99.90
33460;DHT22;19795;53.160;6.612;2023-03-19T12:06:16;15.00;99.90
33460;DHT22;19795;53.160;6.612;2023-03-19T12:08:54;15.40;99.90
33460;DHT22;19795;53.160;6.612;2023-03-19T12:14:15;14.90;99.90
33460;DHT22;19795;53.160;6.612;2023-03-19T12:17:02;14.40;99.90
33460;DHT22;19795;53.160;6.612;2023-03-19T12:22:40;14.30;99.90
33460;DHT22;19795;53.160;6.612;2023-03-19T12:25:36;14.60;99.90
33460;DHT22;19795;53.160;6.612;2023-03-19T12:28:17;14.70;99.90
33460;DHT22;19795;53.160;6.612;2023-03-19T12:31:00;15.20;99.90
33460;DHT22;19795;53.160;6.612;2023-03-19T12:33:40;15.30;99.90
33460;DHT22;19795;53.160;6.612;2023-03-19T12:36:12;14.90;99.90
33460;DHT22;19795;53.160;6.612;2023-03-19T12:38:58;14.80;99.90
33460;DHT22;19795;53.160;6.612;2023-03-19T12:41:27;14.70;99.90
33460;DHT22;19795;53.160;6.612;2023-03-19T12:44:01;14.70;99.90
33460;DHT22;19795;53.160;6.612;2023-03-19T12:46:53;14.70;99.90
33460;DHT22;19795;53.160;6.612;2023-03-19T12:49:36;14.90;99.90
33460;DHT22;19795;53.160;6.612;2023-03-19T12:52:23;15.00;99.90
33460;DHT22;19795;53.160;6.612;2023-03-19T12:57:42;14.20;99.90
33460;DHT22;19795;53.160;6.612;2023-03-19T13:00:25;14.10;99.90
33460;DHT22;19795;53.160;6.612;2023-03-19T13:08:18;14.00;99.90
33460;DHT22;19795;53.160;6.612;2023-03-19T13:10:48;14.00;99.90
33460;DHT22;19795;53.160;6.612;2023-03-19T13:15:52;13.30;99.90
33460;DHT22;19795;53.160;6.612;2023-03-19T13:18:43;13.50;99.90
33460;DHT22;19795;53.160;6.612;2023-03-19T13:21:21;13.80;99.90
33460;DHT22;19795;53.160;6.612;2023-03-19T13:23:51;14.00;99.90
33460;DHT22;19795;53.160;6.612;2023-03-19T13:26:22;14.10;99.90
33460;DHT22;19795;53.160;6.612;2023-03-19T13:29:01;14.00;99.90
33460;DHT22;19795;53.160;6.612;2023-03-19T13:31:35;13.70;99.90
33460;DHT22;19795;53.160;6.612;2023-03-19T13:34:06;13.50;99.90
33460;DHT22;19795;53.160;6.612;2023-03-19T13:37:24;13.20;99.90
33460;DHT22;19795;53.160;6.612;2023-03-19T13:39:32;13.00;99.90
33460;DHT22;19795;53.160;6.612;2023-03-19T13:42:07;12.90;99.90
33460;DHT22;19795;53.160;6.612;2023-03-19T13:44:38;12.80;99.90
33460;DHT22;19795;53.160;6.612;2023-03-19T13:52:40;13.10;99.90
33460;DHT22;19795;53.160;6.612;2023-03-19T13:55:32;13.10;99.90
33460;DHT22;19795;53.160;6.612;2023-03-19T14:03:33;12.80;99.90
33460;DHT22;19795;53.160;6.612;2023-03-19T14:06:00;12.80;99.90
33460;DHT22;19795;53.160;6.612;2023-03-19T14:08:33;12.50;99.90
33460;DHT22;19795;53.160;6.612;2023-03-19T14:11:07;12.50;99.90
33460;DHT22;19795;53.160;6.612;2023-03-19T14:13:39;12.40;99.90
33460;DHT22;19795;53.160;6.612;2023-03-19T14:16:15;12.30;99.90
33460;DHT22;19795;53.160;6.612;2023-03-19T14:18:42;12.30;99.90
33460;DHT22;19795;53.160;6.612;2023-03-19T14:21:13;12.30;99.90
33460;DHT22;19795;53.160;6.612;2023-03-19T14:23:41;12.10;99.90
33460;DHT22;19795;53.160;6.612;2023-03-19T14:26:14;11.90;99.90
33460;DHT22;19795;53.160;6.612;2023-03-19T14:31:46;11.80;99.90
33460;DHT22;19795;53.160;6.612;2023-03-19T14:34:39;11.80;99.90
33460;DHT22;19795;53.160;6.612;2023-03-19T14:37:23;11.80;99.90
33460;DHT22;19795;53.160;6.612;2023-03-19T14:45:28;11.40;99.90
33460;DHT22;19795;53.160;6.612;2023-03-19T14:48:32;11.20;99.90
33460;DHT22;19795;53.160;6.612;2023-03-19T14:54:15;11.30;99.90
33460;DHT22;19795;53.160;6.612;2023-03-19T14:56:42;11.20;99.90
33460;DHT22;19795;53.160;6.612;2023-03-19T14:59:10;11.30;99.90
33460;DHT22;19795;53.160;6.612;2023-03-19T15:01:40;11.10;99.90
33460;DHT22;19795;53.160;6.612;2023-03-19T15:04:10;11.10;99.90
33460;DHT22;19795;53.160;6.612;2023-03-19T15:06:39;11.30;99.90
33460;DHT22;19795;53.160;6.612;2023-03-19T15:09:12;11.50;99.90
33460;DHT22;19795;53.160;6.612;2023-03-19T15:19:42;11.30;99.90
33460;DHT22;19795;53.160;6.612;2023-03-19T15:24:44;11.20;99.90
33460;DHT22;19795;53.160;6.612;2023-03-19T15:27:20;11.20;99.90
33460;DHT22;19795;53.160;6.612;2023-03-19T15:29:47;11.10;99.90
33460;DHT22;19795;53.160;6.612;2023-03-19T15:32:25;11.00;99.90
33460;DHT22;19795;53.160;6.612;2023-03-19T15:34:57;11.00;99.90
33460;DHT22;19795;53.160;6.612;2023-03-19T15:37:23;11.10;99.90
33460;DHT22;19795;53.160;6.612;2023-03-19T15:39:53;11.00;99.90
33460;DHT22;19795;53.160;6.612;2023-03-19T15:42:22;11.00;99.90
33460;DHT22;19795;53.160;6.612;2023-03-19T15:45:03;10.80;99.90
33460;DHT22;19795;53.160;6.612;2023-03-19T15:47:32;10.90;99.90
33460;DHT22;19795;53.160;6.612;2023-03-19T15:50:05;10.90;99.90
33460;DHT22;19795;53.160;6.612;2023-03-19T15:52:34;10.90;99.90
33460;DHT22;19795;53.160;6.612;2023-03-19T15:55:02;10.90;99.90
33460;DHT22;19795;53.160;6.612;2023-03-19T15:57:29;11.00;99.90
33460;DHT22;19795;53.160;6.612;2023-03-19T15:59:58;10.90;99.90
33460;DHT22;19795;53.160;6.612;2023-03-19T16:02:30;10.90;99.90
33460;DHT22;19795;53.160;6.612;2023-03-19T16:04:57;10.90;99.90
33460;DHT22;19795;53.160;6.612;2023-03-19T16:07:26;10.90;99.90
33460;DHT22;19795;53.160;6.612;2023-03-19T16:09:58;10.90;99.90
33460;DHT22;19795;53.160;6.612;2023-03-19T16:12:38;10.70;99.90
33460;DHT22;19795;53.160;6.612;2023-03-19T16:15:27;10.70;99.90
33460;DHT22;19795;53.160;6.612;2023-03-19T16:17:54;10.70;99.90
33460;DHT22;19795;53.160;6.612;2023-03-19T16:20:20;10.70;99.90
33460;DHT22;19795;53.160;6.612;2023-03-19T16:22:53;10.60;99.90
33460;DHT22;19795;53.160;6.612;2023-03-19T16:25:19;10.60;99.90
33460;DHT22;19795;53.160;6.612;2023-03-19T16:27:47;10.60;99.90
33460;DHT22;19795;53.160;6.612;2023-03-19T16:30:21;10.60;99.90
33460;DHT22;19795;53.160;6.612;2023-03-19T16:33:01;10.60;99.90
33460;DHT22;19795;53.160;6.612;2023-03-19T16:35:31;10.60;99.90
33460;DHT22;19795;53.160;6.612;2023-03-19T16:38:33;10.50;99.90
33460;DHT22;19795;53.160;6.612;2023-03-19T16:43:32;10.50;99.90
33460;DHT22;19795;53.160;6.612;2023-03-19T16:46:07;10.50;99.90
33460;DHT22;19795;53.160;6.612;2023-03-19T16:48:37;10.40;99.90
33460;DHT22;19795;53.160;6.612;2023-03-19T16:51:03;10.40;99.90
33460;DHT22;19795;53.160;6.612;2023-03-19T16:53:30;10.40;99.90
33460;DHT22;19795;53.160;6.612;2023-03-19T16:55:57;10.40;99.90
33460;DHT22;19795;53.160;6.612;2023-03-19T16:58:37;10.30;99.90
33460;DHT22;19795;53.160;6.612;2023-03-19T17:01:25;10.30;99.90
33460;DHT22;19795;53.160;6.612;2023-03-19T17:03:51;10.30;99.90
33460;DHT22;19795;53.160;6.612;2023-03-19T17:06:18;10.40;99.90
33460;DHT22;19795;53.160;6.612;2023-03-19T17:08:44;10.30;99.90
33460;DHT22;19795;53.160;6.612;2023-03-19T17:11:31;10.30;99.90
33460;DHT22;19795;53.160;6.612;2023-03-19T17:13:59;10.30;99.90
33460;DHT22;19795;53.160;6.612;2023-03-19T17:16:26;10.30;99.90
33460;DHT22;19795;53.160;6.612;2023-03-19T17:18:52;10.30;99.90
33460;DHT22;19795;53.160;6.612;2023-03-19T17:21:25;10.30;99.90
33460;DHT22;19795;53.160;6.612;2023-03-19T17:23:51;10.30;99.90
33460;DHT22;19795;53.160;6.612;2023-03-19T17:26:20;10.30;99.90
33460;DHT22;19795;53.160;6.612;2023-03-19T17:28:46;10.30;99.90
33460;DHT22;19795;53.160;6.612;2023-03-19T17:33:50;10.20;99.90
33460;DHT22;19795;53.160;6.612;2023-03-19T17:36:17;10.20;99.90
33460;DHT22;19795;53.160;6.612;2023-03-19T17:38:43;10.10;99.90
33460;DHT22;19795;53.160;6.612;2023-03-19T17:41:15;10.10;99.90
33460;DHT22;19795;53.160;6.612;2023-03-19T17:43:47;10.10;99.90
33460;DHT22;19795;53.160;6.612;2023-03-19T17:46:21;10.10;99.90
33460;DHT22;19795;53.160;6.612;2023-03-19T17:48:48;10.00;99.90
33460;DHT22;19795;53.160;6.612;2023-03-19T17:51:16;10.00;99.90
33460;DHT22;19795;53.160;6.612;2023-03-19T17:53:45;9.90;99.90
33460;DHT22;19795;53.160;6.612;2023-03-19T17:56:15;9.80;99.90
33460;DHT22;19795;53.160;6.612;2023-03-19T17:58:41;9.70;99.90
33460;DHT22;19795;53.160;6.612;2023-03-19T18:01:19;9.70;99.90
33460;DHT22;19795;53.160;6.612;2023-03-19T18:03:47;9.70;99.90
33460;DHT22;19795;53.160;6.612;2023-03-19T18:06:21;9.70;99.90
33460;DHT22;19795;53.160;6.612;2023-03-19T18:08:47;9.60;99.90
33460;DHT22;19795;53.160;6.612;2023-03-19T18:11:13;9.60;99.90
33460;DHT22;19795;53.160;6.612;2023-03-19T18:13:40;9.60;99.90
33460;DHT22;19795;53.160;6.612;2023-03-19T18:16:27;9.70;99.90
33460;DHT22;19795;53.160;6.612;2023-03-19T18:18:55;9.60;99.90
33460;DHT22;19795;53.160;6.612;2023-03-19T18:21:22;9.70;99.90
33460;DHT22;19795;53.160;6.612;2023-03-19T18:23:48;9.60;99.90
33460;DHT22;19795;53.160;6.612;2023-03-19T18:26:14;9.60;99.90
33460;DHT22;19795;53.160;6.612;2023-03-19T18:28:41;9.60;99.90
33460;DHT22;19795;53.160;6.612;2023-03-19T18:31:16;9.60;99.90
33460;DHT22;19795;53.160;6.612;2023-03-19T18:33:46;9.50;99.90
33460;DHT22;19795;53.160;6.612;2023-03-19T18:36:17;9.50;99.90
33460;DHT22;19795;53.160;6.612;2023-03-19T18:38:43;9.50;99.90
33460;DHT22;19795;53.160;6.612;2023-03-19T18:41:15;9.50;99.90
33460;DHT22;19795;53.160;6.612;2023-03-19T18:43:41;9.40;99.90
33460;DHT22;19795;53.160;6.612;2023-03-19T18:46:10;9.40;99.90
33460;DHT22;19795;53.160;6.612;2023-03-19T18:48:37;9.40;99.90
33460;DHT22;19795;53.160;6.612;2023-03-19T18:51:02;9.30;99.90
33460;DHT22;19795;53.160;6.612;2023-03-19T18:53:28;9.20;99.90
33460;DHT22;19795;53.160;6.612;2023-03-19T18:55:54;9.20;99.90
33460;DHT22;19795;53.160;6.612;2023-03-19T18:58:24;9.20;99.90
33460;DHT22;19795;53.160;6.612;2023-03-19T19:00:52;9.20;99.90
33460;DHT22;19795;53.160;6.612;2023-03-19T19:03:22;9.20;99.90
33460;DHT22;19795;53.160;6.612;2023-03-19T19:05:52;9.10;99.90
33460;DHT22;19795;53.160;6.612;2023-03-19T19:08:20;9.00;99.90
33460;DHT22;19795;53.160;6.612;2023-03-19T19:10:53;9.00;99.90
33460;DHT22;19795;53.160;6.612;2023-03-19T19:13:22;8.90;99.90
33460;DHT22;19795;53.160;6.612;2023-03-19T19:15:52;8.90;99.90
33460;DHT22;19795;53.160;6.612;2023-03-19T19:18:23;8.90;99.90
33460;DHT22;19795;53.160;6.612;2023-03-19T19:20:50;8.80;99.90
33460;DHT22;19795;53.160;6.612;2023-03-19T19:23:17;8.90;99.90
33460;DHT22;19795;53.160;6.612;2023-03-19T19:25:45;8.90;99.90
33460;DHT22;19795;53.160;6.612;2023-03-19T19:28:18;8.90;99.90
33460;DHT22;19795;53.160;6.612;2023-03-19T19:30:46;8.80;99.90
33460;DHT22;19795;53.160;6.612;2023-03-19T19:33:27;8.90;99.90
33460;DHT22;19795;53.160;6.612;2023-03-19T19:35:56;8.90;99.90
33460;DHT22;19795;53.160;6.612;2023-03-19T19:38:22;8.80;99.90
33460;DHT22;19795;53.160;6.612;2023-03-19T19:40:50;8.80;99.90
33460;DHT22;19795;53.160;6.612;2023-03-19T19:43:23;8.70;99.90
33460;DHT22;19795;53.160;6.612;2023-03-19T19:45:51;8.70;99.90
33460;DHT22;19795;53.160;6.612;2023-03-19T19:48:24;8.70;99.90
33460;DHT22;19795;53.160;6.612;2023-03-19T19:50:51;8.60;99.90
33460;DHT22;19795;53.160;6.612;2023-03-19T19:53:17;8.60;99.90
33460;DHT22;19795;53.160;6.612;2023-03-19T19:55:44;8.60;99.90
33460;DHT22;19795;53.160;6.612;2023-03-19T19:58:30;8.60;99.90
33460;DHT22;19795;53.160;6.612;2023-03-19T20:00:58;8.60;99.90
33460;DHT22;19795;53.160;6.612;2023-03-19T20:03:26;8.80;99.90
33460;DHT22;19795;53.160;6.612;2023-03-19T20:05:53;8.60;99.90
33460;DHT22;19795;53.160;6.612;2023-03-19T20:08:19;8.60;99.90
33460;DHT22;19795;53.160;6.612;2023-03-19T20:10:46;8.60;99.90
33460;DHT22;19795;53.160;6.612;2023-03-19T20:13:28;8.60;99.90
33460;DHT22;19795;53.160;6.612;2023-03-19T20:15:56;8.60;99.90
33460;DHT22;19795;53.160;6.612;2023-03-19T20:18:24;8.60;99.90
33460;DHT22;19795;53.160;6.612;2023-03-19T20:20:52;8.40;99.90
33460;DHT22;19795;53.160;6.612;2023-03-19T20:23:17;8.50;99.90
33460;DHT22;19795;53.160;6.612;2023-03-19T20:25:45;8.50;99.90
33460;DHT22;19795;53.160;6.612;2023-03-19T20:28:20;8.50;99.90
33460;DHT22;19795;53.160;6.612;2023-03-19T20:30:48;8.50;99.90
33460;DHT22;19795;53.160;6.612;2023-03-19T20:33:15;8.40;99.90
33460;DHT22;19795;53.160;6.612;2023-03-19T20:35:43;8.40;99.90
33460;DHT22;19795;53.160;6.612;2023-03-19T20:38:09;8.40;99.90
33460;DHT22;19795;53.160;6.612;2023-03-19T20:41:01;8.40;99.90
33460;DHT22;19795;53.160;6.612;2023-03-19T20:45:53;8.30;99.90
33460;DHT22;19795;53.160;6.612;2023-03-19T20:48:24;8.30;99.90
33460;DHT22;19795;53.160;6.612;2023-03-19T20:50:50;8.30;99.90
33460;DHT22;19795;53.160;6.612;2023-03-19T20:53:16;8.20;99.90
33460;DHT22;19795;53.160;6.612;2023-03-19T20:55:43;8.10;99.90
33460;DHT22;19795;53.160;6.612;2023-03-19T20:58:23;8.10;99.90
33460;DHT22;19795;53.160;6.612;2023-03-19T21:00:52;8.00;99.90
33460;DHT22;19795;53.160;6.612;2023-03-19T21:03:20;8.10;99.90
33460;DHT22;19795;53.160;6.612;2023-03-19T21:05:50;8.00;99.90
33460;DHT22;19795;53.160;6.612;2023-03-19T21:08:26;8.00;99.90
33460;DHT22;19795;53.160;6.612;2023-03-19T21:10:53;8.00;99.90
33460;DHT22;19795;53.160;6.612;2023-03-19T21:13:19;8.10;99.90
33460;DHT22;19795;53.160;6.612;2023-03-19T21:15:46;8.00;99.90
33460;DHT22;19795;53.160;6.612;2023-03-19T21:18:14;8.00;99.90
33460;DHT22;19795;53.160;6.612;2023-03-19T21:20:43;8.00;99.90
33460;DHT22;19795;53.160;6.612;2023-03-19T21:23:17;8.10;99.90
33460;DHT22;19795;53.160;6.612;2023-03-19T21:25:44;8.00;99.90
33460;DHT22;19795;53.160;6.612;2023-03-19T21:28:27;8.10;99.90
33460;DHT22;19795;53.160;6.612;2023-03-19T21:30:53;8.00;99.90
33460;DHT22;19795;53.160;6.612;2023-03-19T21:33:23;8.00;99.90
33460;DHT22;19795;53.160;6.612;2023-03-19T21:35:50;8.00;99.90
33460;DHT22;19795;53.160;6.612;2023-03-19T21:38:16;8.00;99.90
33460;DHT22;19795;53.160;6.612;2023-03-19T21:40:42;8.00;99.90
33460;DHT22;19795;53.160;6.612;2023-03-19T21:43:18;8.00;99.90
33460;DHT22;19795;53.160;6.612;2023-03-19T21:45:45;7.90;99.90
33460;DHT22;19795;53.160;6.612;2023-03-19T21:50:44;8.00;99.90
33460;DHT22;19795;53.160;6.612;2023-03-19T21:53:10;7.90;99.90
